sensor_id;sensor_type;location;lat;lon;timestamp;P1;durP1;ratioP1;P2;durP2;ratioP2
6133;SDS011;3098;42.678;23.364;2023-03-23T00:00:51;54.33;;;23.23;;
6133;SDS011;3098;42.678;23.364;2023-03-23T00:03:19;51.70;;;22.30;;
6133;SDS011;3098;42.678;23.364;2023-03-23T00:05:48;56.13;;;23.37;;
6133;SDS011;3098;42.678;23.364;2023-03-23T00:08:16;50.43;;;20.63;;
6133;SDS011;3098;42.678;23.364;2023-03-23T00:10:47;59.70;;;21.13;;
6133;SDS011;3098;42.678;23.364;2023-03-23T00:13:17;55.23;;;21.67;;
6133;SDS011;3098;42.678;23.364;2023-03-23T00:15:45;59.10;;;20.33;;
6133;SDS011;3098;42.678;23.364;2023-03-23T00:18:14;54.37;;;21.47;;
6133;SDS011;3098;42.678;23.364;2023-03-23T00:20:48;44.63;;;19.80;;
6133;SDS011;3098;42.678;23.364;2023-03-23T00:23:16;60.83;;;23.67;;
6133;SDS011;3098;42.678;23.364;2023-03-23T00:25:48;52.63;;;19.70;;
6133;SDS011;3098;42.678;23.364;2023-03-23T00:28:18;55.37;;;20.20;;
6133;SDS011;3098;42.678;23.364;2023-03-23T00:30:53;53.20;;;20.07;;
6133;SDS011;3098;42.678;23.364;2023-03-23T00:33:21;47.63;;;20.47;;
6133;SDS011;3098;42.678;23.364;2023-03-23T00:35:50;39.53;;;18.27;;
6133;SDS011;3098;42.678;23.364;2023-03-23T00:38:18;46.97;;;20.07;;
6133;SDS011;3098;42.678;23.364;2023-03-23T00:40:45;53.60;;;20.03;;
6133;SDS011;3098;42.678;23.364;2023-03-23T00:43:13;45.93;;;20.13;;
6133;SDS011;3098;42.678;23.364;2023-03-23T00:45:41;52.20;;;21.17;;
6133;SDS011;3098;42.678;23.364;2023-03-23T00:48:09;50.43;;;21.40;;
6133;SDS011;3098;42.678;23.364;2023-03-23T00:50:37;50.53;;;20.00;;
6133;SDS011;3098;42.678;23.364;2023-03-23T00:53:05;62.90;;;22.40;;
6133;SDS011;3098;42.678;23.364;2023-03-23T00:55:33;59.20;;;22.77;;
6133;SDS011;3098;42.678;23.364;2023-03-23T00:58:00;62.23;;;22.57;;
6133;SDS011;3098;42.678;23.364;2023-03-23T01:00:27;76.17;;;24.27;;
6133;SDS011;3098;42.678;23.364;2023-03-23T01:02:55;69.67;;;24.63;;
6133;SDS011;3098;42.678;23.364;2023-03-23T01:05:22;77.73;;;24.20;;
6133;SDS011;3098;42.678;23.364;2023-03-23T01:07:49;90.33;;;23.53;;
6133;SDS011;3098;42.678;23.364;2023-03-23T01:10:17;104.67;;;23.13;;
6133;SDS011;3098;42.678;23.364;2023-03-23T01:12:44;108.07;;;25.20;;
6133;SDS011;3098;42.678;23.364;2023-03-23T01:15:15;101.70;;;24.20;;
6133;SDS011;3098;42.678;23.364;2023-03-23T01:17:43;94.13;;;21.57;;
6133;SDS011;3098;42.678;23.364;2023-03-23T01:20:10;76.13;;;23.90;;
6133;SDS011;3098;42.678;23.364;2023-03-23T01:22:38;66.53;;;23.93;;
6133;SDS011;3098;42.678;23.364;2023-03-23T01:25:06;78.73;;;23.67;;
6133;SDS011;3098;42.678;23.364;2023-03-23T01:27:36;76.90;;;24.27;;
6133;SDS011;3098;42.678;23.364;2023-03-23T01:30:05;67.20;;;23.90;;
6133;SDS011;3098;42.678;23.364;2023-03-23T01:32:34;69.80;;;26.70;;
6133;SDS011;3098;42.678;23.364;2023-03-23T01:35:00;58.43;;;22.87;;
6133;SDS011;3098;42.678;23.364;2023-03-23T01:37:28;59.50;;;23.47;;
6133;SDS011;3098;42.678;23.364;2023-03-23T01:39:56;53.70;;;21.53;;
6133;SDS011;3098;42.678;23.364;2023-03-23T01:42:23;59.70;;;21.80;;
6133;SDS011;3098;42.678;23.364;2023-03-23T01:48:05;57.03;;;20.53;;
6133;SDS011;3098;42.678;23.364;2023-03-23T01:50:37;64.40;;;21.70;;
6133;SDS011;3098;42.678;23.364;2023-03-23T01:53:11;60.40;;;22.50;;
6133;SDS011;3098;42.678;23.364;2023-03-23T01:55:39;62.30;;;23.33;;
6133;SDS011;3098;42.678;23.364;2023-03-23T01:58:13;56.00;;;21.80;;
6133;SDS011;3098;42.678;23.364;2023-03-23T02:00:43;54.20;;;21.83;;
6133;SDS011;3098;42.678;23.364;2023-03-23T02:03:11;52.23;;;21.03;;
6133;SDS011;3098;42.678;23.364;2023-03-23T02:05:41;52.77;;;21.13;;
6133;SDS011;3098;42.678;23.364;2023-03-23T02:08:09;67.53;;;22.63;;
6133;SDS011;3098;42.678;23.364;2023-03-23T02:10:39;62.40;;;22.17;;
6133;SDS011;3098;42.678;23.364;2023-03-23T02:13:07;61.83;;;23.37;;
6133;SDS011;3098;42.678;23.364;2023-03-23T02:15:38;52.30;;;21.90;;
6133;SDS011;3098;42.678;23.364;2023-03-23T02:18:14;63.67;;;23.13;;
6133;SDS011;3098;42.678;23.364;2023-03-23T02:21:02;64.90;;;22.73;;
6133;SDS011;3098;42.678;23.364;2023-03-23T02:23:56;69.53;;;23.63;;
6133;SDS011;3098;42.678;23.364;2023-03-23T02:26:47;61.90;;;22.07;;
6133;SDS011;3098;42.678;23.364;2023-03-23T02:29:23;61.13;;;23.70;;
6133;SDS011;3098;42.678;23.364;2023-03-23T02:32:12;55.60;;;22.67;;
6133;SDS011;3098;42.678;23.364;2023-03-23T02:34:49;60.70;;;23.87;;
6133;SDS011;3098;42.678;23.364;2023-03-23T02:37:21;65.97;;;22.57;;
6133;SDS011;3098;42.678;23.364;2023-03-23T02:39:54;60.77;;;21.97;;
6133;SDS011;3098;42.678;23.364;2023-03-23T02:42:24;69.50;;;24.20;;
6133;SDS011;3098;42.678;23.364;2023-03-23T02:44:57;68.80;;;25.00;;
6133;SDS011;3098;42.678;23.364;2023-03-23T02:47:28;62.10;;;24.57;;
6133;SDS011;3098;42.678;23.364;2023-03-23T02:49:58;65.43;;;23.93;;
6133;SDS011;3098;42.678;23.364;2023-03-23T02:52:27;56.07;;;23.83;;
6133;SDS011;3098;42.678;23.364;2023-03-23T02:54:56;68.53;;;25.80;;
6133;SDS011;3098;42.678;23.364;2023-03-23T02:57:27;70.17;;;24.43;;
6133;SDS011;3098;42.678;23.364;2023-03-23T02:59:54;61.90;;;24.73;;
6133;SDS011;3098;42.678;23.364;2023-03-23T03:02:22;69.43;;;25.67;;
6133;SDS011;3098;42.678;23.364;2023-03-23T03:04:52;66.73;;;25.53;;
6133;SDS011;3098;42.678;23.364;2023-03-23T03:07:40;91.17;;;30.63;;
6133;SDS011;3098;42.678;23.364;2023-03-23T03:10:23;86.87;;;31.17;;
6133;SDS011;3098;42.678;23.364;2023-03-23T03:12:54;81.17;;;28.90;;
6133;SDS011;3098;42.678;23.364;2023-03-23T03:15:29;82.77;;;30.07;;
6133;SDS011;3098;42.678;23.364;2023-03-23T03:18:01;82.23;;;28.53;;
6133;SDS011;3098;42.678;23.364;2023-03-23T03:20:34;69.47;;;25.97;;
6133;SDS011;3098;42.678;23.364;2023-03-23T03:23:08;60.37;;;23.50;;
6133;SDS011;3098;42.678;23.364;2023-03-23T03:25:38;76.73;;;25.60;;
6133;SDS011;3098;42.678;23.364;2023-03-23T03:28:12;85.10;;;25.93;;
6133;SDS011;3098;42.678;23.364;2023-03-23T03:30:41;69.10;;;25.57;;
6133;SDS011;3098;42.678;23.364;2023-03-23T03:33:10;70.20;;;25.90;;
6133;SDS011;3098;42.678;23.364;2023-03-23T03:35:38;69.30;;;24.50;;
6133;SDS011;3098;42.678;23.364;2023-03-23T03:38:08;68.60;;;24.57;;
6133;SDS011;3098;42.678;23.364;2023-03-23T03:40:37;62.87;;;24.47;;
6133;SDS011;3098;42.678;23.364;2023-03-23T03:43:04;74.40;;;24.90;;
6133;SDS011;3098;42.678;23.364;2023-03-23T03:45:33;65.73;;;25.70;;
6133;SDS011;3098;42.678;23.364;2023-03-23T03:48:00;58.90;;;23.37;;
6133;SDS011;3098;42.678;23.364;2023-03-23T03:50:27;69.33;;;24.03;;
6133;SDS011;3098;42.678;23.364;2023-03-23T03:52:56;61.10;;;23.53;;
6133;SDS011;3098;42.678;23.364;2023-03-23T03:55:24;66.73;;;24.87;;
6133;SDS011;3098;42.678;23.364;2023-03-23T03:57:53;62.13;;;22.57;;
6133;SDS011;3098;42.678;23.364;2023-03-23T04:00:20;56.63;;;24.47;;
6133;SDS011;3098;42.678;23.364;2023-03-23T04:02:48;60.20;;;22.67;;
6133;SDS011;3098;42.678;23.364;2023-03-23T04:05:19;49.67;;;21.13;;
6133;SDS011;3098;42.678;23.364;2023-03-23T04:07:46;50.87;;;20.83;;
6133;SDS011;3098;42.678;23.364;2023-03-23T04:10:14;60.03;;;21.67;;
6133;SDS011;3098;42.678;23.364;2023-03-23T04:12:46;56.10;;;20.87;;
6133;SDS011;3098;42.678;23.364;2023-03-23T04:15:13;51.87;;;20.07;;
6133;SDS011;3098;42.678;23.364;2023-03-23T04:17:41;51.20;;;22.13;;
6133;SDS011;3098;42.678;23.364;2023-03-23T04:20:08;46.53;;;20.03;;
6133;SDS011;3098;42.678;23.364;2023-03-23T04:22:39;58.20;;;20.40;;
6133;SDS011;3098;42.678;23.364;2023-03-23T04:25:09;53.40;;;20.40;;
6133;SDS011;3098;42.678;23.364;2023-03-23T04:27:37;44.43;;;19.87;;
6133;SDS011;3098;42.678;23.364;2023-03-23T04:30:10;56.37;;;23.00;;
6133;SDS011;3098;42.678;23.364;2023-03-23T04:32:39;51.53;;;20.97;;
6133;SDS011;3098;42.678;23.364;2023-03-23T04:35:08;43.13;;;18.53;;
6133;SDS011;3098;42.678;23.364;2023-03-23T04:37:37;45.13;;;19.33;;
6133;SDS011;3098;42.678;23.364;2023-03-23T04:40:06;40.53;;;19.17;;
6133;SDS011;3098;42.678;23.364;2023-03-23T04:42:36;40.70;;;16.77;;
6133;SDS011;3098;42.678;23.364;2023-03-23T04:45:05;42.23;;;18.43;;
6133;SDS011;3098;42.678;23.364;2023-03-23T04:47:36;34.73;;;15.00;;
6133;SDS011;3098;42.678;23.364;2023-03-23T04:50:07;33.50;;;15.10;;
6133;SDS011;3098;42.678;23.364;2023-03-23T04:52:37;30.13;;;13.27;;
6133;SDS011;3098;42.678;23.364;2023-03-23T04:55:06;32.50;;;13.67;;
6133;SDS011;3098;42.678;23.364;2023-03-23T04:57:34;30.43;;;13.67;;
6133;SDS011;3098;42.678;23.364;2023-03-23T05:00:02;33.07;;;13.47;;
6133;SDS011;3098;42.678;23.364;2023-03-23T05:02:34;28.63;;;10.67;;
6133;SDS011;3098;42.678;23.364;2023-03-23T05:05:04;25.63;;;11.43;;
6133;SDS011;3098;42.678;23.364;2023-03-23T05:07:32;22.70;;;11.30;;
6133;SDS011;3098;42.678;23.364;2023-03-23T05:09:59;25.20;;;11.63;;
6133;SDS011;3098;42.678;23.364;2023-03-23T05:12:26;25.30;;;11.47;;
6133;SDS011;3098;42.678;23.364;2023-03-23T05:14:53;30.23;;;11.57;;
6133;SDS011;3098;42.678;23.364;2023-03-23T05:17:20;28.93;;;13.07;;
6133;SDS011;3098;42.678;23.364;2023-03-23T05:19:51;25.23;;;12.30;;
6133;SDS011;3098;42.678;23.364;2023-03-23T05:22:19;27.77;;;13.03;;
6133;SDS011;3098;42.678;23.364;2023-03-23T05:24:47;36.53;;;14.53;;
6133;SDS011;3098;42.678;23.364;2023-03-23T05:27:16;42.70;;;16.40;;
6133;SDS011;3098;42.678;23.364;2023-03-23T05:29:45;45.73;;;17.53;;
6133;SDS011;3098;42.678;23.364;2023-03-23T05:32:13;39.30;;;16.37;;
6133;SDS011;3098;42.678;23.364;2023-03-23T05:34:42;40.60;;;15.67;;
6133;SDS011;3098;42.678;23.364;2023-03-23T05:37:11;32.87;;;13.57;;
6133;SDS011;3098;42.678;23.364;2023-03-23T05:39:38;38.37;;;14.63;;
6133;SDS011;3098;42.678;23.364;2023-03-23T05:42:06;39.47;;;14.57;;
6133;SDS011;3098;42.678;23.364;2023-03-23T05:44:34;34.47;;;12.53;;
6133;SDS011;3098;42.678;23.364;2023-03-23T05:47:01;27.07;;;13.57;;
6133;SDS011;3098;42.678;23.364;2023-03-23T05:49:28;28.97;;;13.60;;
6133;SDS011;3098;42.678;23.364;2023-03-23T05:51:55;33.00;;;14.73;;
6133;SDS011;3098;42.678;23.364;2023-03-23T05:54:25;31.30;;;13.70;;
6133;SDS011;3098;42.678;23.364;2023-03-23T05:56:52;38.87;;;15.90;;
6133;SDS011;3098;42.678;23.364;2023-03-23T05:59:20;39.87;;;15.97;;
6133;SDS011;3098;42.678;23.364;2023-03-23T06:01:47;37.53;;;15.80;;
6133;SDS011;3098;42.678;23.364;2023-03-23T06:04:15;40.65;;;15.63;;
6133;SDS011;3098;42.678;23.364;2023-03-23T06:06:42;40.97;;;15.63;;
6133;SDS011;3098;42.678;23.364;2023-03-23T06:09:10;35.85;;;15.68;;
6133;SDS011;3098;42.678;23.364;2023-03-23T06:11:39;38.60;;;15.85;;
6133;SDS011;3098;42.678;23.364;2023-03-23T06:14:06;35.00;;;13.90;;
6133;SDS011;3098;42.678;23.364;2023-03-23T06:16:33;30.15;;;14.05;;
6133;SDS011;3098;42.678;23.364;2023-03-23T06:19:01;38.70;;;15.80;;
6133;SDS011;3098;42.678;23.364;2023-03-23T06:21:29;35.88;;;15.68;;
6133;SDS011;3098;42.678;23.364;2023-03-23T06:23:57;33.63;;;15.27;;
6133;SDS011;3098;42.678;23.364;2023-03-23T06:26:25;36.95;;;14.98;;
6133;SDS011;3098;42.678;23.364;2023-03-23T06:28:58;42.70;;;16.42;;
6133;SDS011;3098;42.678;23.364;2023-03-23T06:31:26;33.83;;;16.20;;
6133;SDS011;3098;42.678;23.364;2023-03-23T06:33:54;42.60;;;16.27;;
6133;SDS011;3098;42.678;23.364;2023-03-23T06:36:21;42.17;;;18.98;;
6133;SDS011;3098;42.678;23.364;2023-03-23T06:38:51;46.95;;;19.88;;
6133;SDS011;3098;42.678;23.364;2023-03-23T06:41:20;43.17;;;18.80;;
6133;SDS011;3098;42.678;23.364;2023-03-23T06:43:48;33.90;;;15.07;;
6133;SDS011;3098;42.678;23.364;2023-03-23T06:46:17;28.00;;;14.40;;
6133;SDS011;3098;42.678;23.364;2023-03-23T06:48:44;25.70;;;12.20;;
6133;SDS011;3098;42.678;23.364;2023-03-23T06:51:14;24.55;;;13.25;;
6133;SDS011;3098;42.678;23.364;2023-03-23T06:53:42;26.13;;;12.25;;
6133;SDS011;3098;42.678;23.364;2023-03-23T06:56:09;26.02;;;11.90;;
6133;SDS011;3098;42.678;23.364;2023-03-23T06:58:38;24.40;;;12.18;;
6133;SDS011;3098;42.678;23.364;2023-03-23T07:01:07;24.02;;;11.98;;
6133;SDS011;3098;42.678;23.364;2023-03-23T07:03:36;22.90;;;11.90;;
6133;SDS011;3098;42.678;23.364;2023-03-23T07:06:03;20.88;;;11.50;;
6133;SDS011;3098;42.678;23.364;2023-03-23T07:08:31;21.67;;;11.40;;
6133;SDS011;3098;42.678;23.364;2023-03-23T07:10:58;20.80;;;11.38;;
6133;SDS011;3098;42.678;23.364;2023-03-23T07:13:25;23.75;;;11.98;;
6133;SDS011;3098;42.678;23.364;2023-03-23T07:15:53;23.00;;;10.82;;
6133;SDS011;3098;42.678;23.364;2023-03-23T07:18:20;21.15;;;11.30;;
6133;SDS011;3098;42.678;23.364;2023-03-23T07:20:49;18.80;;;11.32;;
6133;SDS011;3098;42.678;23.364;2023-03-23T07:23:16;20.58;;;11.32;;
6133;SDS011;3098;42.678;23.364;2023-03-23T07:25:46;27.63;;;11.32;;
6133;SDS011;3098;42.678;23.364;2023-03-23T07:28:13;26.80;;;12.55;;
6133;SDS011;3098;42.678;23.364;2023-03-23T07:30:44;24.23;;;11.93;;
6133;SDS011;3098;42.678;23.364;2023-03-23T07:33:12;23.75;;;12.30;;
6133;SDS011;3098;42.678;23.364;2023-03-23T07:35:42;23.17;;;12.88;;
6133;SDS011;3098;42.678;23.364;2023-03-23T07:38:20;30.10;;;14.00;;
6133;SDS011;3098;42.678;23.364;2023-03-23T07:40:47;28.02;;;14.27;;
6133;SDS011;3098;42.678;23.364;2023-03-23T07:43:14;26.38;;;14.65;;
6133;SDS011;3098;42.678;23.364;2023-03-23T07:45:41;25.58;;;13.90;;
6133;SDS011;3098;42.678;23.364;2023-03-23T07:48:09;28.90;;;15.43;;
6133;SDS011;3098;42.678;23.364;2023-03-23T07:50:39;28.25;;;15.20;;
6133;SDS011;3098;42.678;23.364;2023-03-23T07:53:08;26.75;;;14.95;;
6133;SDS011;3098;42.678;23.364;2023-03-23T07:55:38;28.85;;;16.25;;
6133;SDS011;3098;42.678;23.364;2023-03-23T07:58:06;39.63;;;17.33;;
6133;SDS011;3098;42.678;23.364;2023-03-23T08:00:33;34.50;;;18.85;;
6133;SDS011;3098;42.678;23.364;2023-03-23T08:03:04;31.48;;;16.92;;
6133;SDS011;3098;42.678;23.364;2023-03-23T08:05:33;34.63;;;17.63;;
6133;SDS011;3098;42.678;23.364;2023-03-23T08:08:02;28.30;;;15.75;;
6133;SDS011;3098;42.678;23.364;2023-03-23T08:10:30;31.75;;;14.32;;
6133;SDS011;3098;42.678;23.364;2023-03-23T08:12:59;27.95;;;15.45;;
6133;SDS011;3098;42.678;23.364;2023-03-23T08:15:26;28.48;;;15.57;;
6133;SDS011;3098;42.678;23.364;2023-03-23T08:17:53;26.20;;;14.50;;
6133;SDS011;3098;42.678;23.364;2023-03-23T08:20:22;32.33;;;14.40;;
6133;SDS011;3098;42.678;23.364;2023-03-23T08:22:51;30.00;;;14.80;;
6133;SDS011;3098;42.678;23.364;2023-03-23T08:25:20;28.80;;;14.05;;
6133;SDS011;3098;42.678;23.364;2023-03-23T08:27:47;27.23;;;13.32;;
6133;SDS011;3098;42.678;23.364;2023-03-23T08:30:16;25.25;;;14.40;;
6133;SDS011;3098;42.678;23.364;2023-03-23T08:32:46;26.15;;;13.52;;
6133;SDS011;3098;42.678;23.364;2023-03-23T08:35:13;25.33;;;12.25;;
6133;SDS011;3098;42.678;23.364;2023-03-23T08:37:41;22.90;;;12.48;;
6133;SDS011;3098;42.678;23.364;2023-03-23T08:40:11;21.55;;;12.20;;
6133;SDS011;3098;42.678;23.364;2023-03-23T08:42:40;18.25;;;9.90;;
6133;SDS011;3098;42.678;23.364;2023-03-23T08:45:11;19.98;;;10.35;;
6133;SDS011;3098;42.678;23.364;2023-03-23T08:47:41;17.02;;;9.75;;
6133;SDS011;3098;42.678;23.364;2023-03-23T08:50:10;17.70;;;9.00;;
6133;SDS011;3098;42.678;23.364;2023-03-23T08:52:42;18.88;;;9.25;;
6133;SDS011;3098;42.678;23.364;2023-03-23T08:55:09;18.05;;;10.27;;
6133;SDS011;3098;42.678;23.364;2023-03-23T08:57:37;11.43;;;7.20;;
6133;SDS011;3098;42.678;23.364;2023-03-23T09:00:06;17.73;;;7.95;;
6133;SDS011;3098;42.678;23.364;2023-03-23T09:02:43;11.52;;;7.05;;
6133;SDS011;3098;42.678;23.364;2023-03-23T09:05:12;10.23;;;7.10;;
6133;SDS011;3098;42.678;23.364;2023-03-23T09:07:40;13.93;;;7.00;;
6133;SDS011;3098;42.678;23.364;2023-03-23T09:10:09;11.95;;;7.57;;
6133;SDS011;3098;42.678;23.364;2023-03-23T09:12:36;14.07;;;6.80;;
6133;SDS011;3098;42.678;23.364;2023-03-23T09:15:04;13.98;;;6.72;;
6133;SDS011;3098;42.678;23.364;2023-03-23T09:17:34;14.55;;;6.82;;
6133;SDS011;3098;42.678;23.364;2023-03-23T09:20:04;9.68;;;5.43;;
6133;SDS011;3098;42.678;23.364;2023-03-23T09:22:37;9.52;;;5.57;;
6133;SDS011;3098;42.678;23.364;2023-03-23T09:25:05;12.98;;;6.38;;
6133;SDS011;3098;42.678;23.364;2023-03-23T09:27:33;12.02;;;6.60;;
6133;SDS011;3098;42.678;23.364;2023-03-23T09:30:01;12.57;;;6.63;;
6133;SDS011;3098;42.678;23.364;2023-03-23T09:32:32;12.50;;;6.35;;
6133;SDS011;3098;42.678;23.364;2023-03-23T09:35:00;10.93;;;6.50;;
6133;SDS011;3098;42.678;23.364;2023-03-23T09:37:29;11.77;;;6.80;;
6133;SDS011;3098;42.678;23.364;2023-03-23T09:40:14;13.95;;;6.07;;
6133;SDS011;3098;42.678;23.364;2023-03-23T09:42:48;11.43;;;6.05;;
6133;SDS011;3098;42.678;23.364;2023-03-23T09:45:24;10.32;;;6.10;;
6133;SDS011;3098;42.678;23.364;2023-03-23T09:48:02;11.77;;;5.82;;
6133;SDS011;3098;42.678;23.364;2023-03-23T09:50:50;10.20;;;6.38;;
6133;SDS011;3098;42.678;23.364;2023-03-23T09:53:24;8.27;;;5.05;;
6133;SDS011;3098;42.678;23.364;2023-03-23T09:56:00;8.75;;;5.32;;
6133;SDS011;3098;42.678;23.364;2023-03-23T09:58:29;9.15;;;5.07;;
6133;SDS011;3098;42.678;23.364;2023-03-23T10:01:00;8.18;;;4.88;;
6133;SDS011;3098;42.678;23.364;2023-03-23T10:03:31;9.57;;;5.43;;
6133;SDS011;3098;42.678;23.364;2023-03-23T10:06:04;9.38;;;5.18;;
6133;SDS011;3098;42.678;23.364;2023-03-23T10:08:36;10.35;;;5.78;;
6133;SDS011;3098;42.678;23.364;2023-03-23T10:11:09;10.23;;;5.97;;
6133;SDS011;3098;42.678;23.364;2023-03-23T10:13:47;8.75;;;5.63;;
6133;SDS011;3098;42.678;23.364;2023-03-23T10:16:26;10.63;;;5.47;;
6133;SDS011;3098;42.678;23.364;2023-03-23T10:18:58;9.23;;;5.30;;
6133;SDS011;3098;42.678;23.364;2023-03-23T10:21:32;14.95;;;5.40;;
6133;SDS011;3098;42.678;23.364;2023-03-23T10:24:07;7.20;;;4.80;;
6133;SDS011;3098;42.678;23.364;2023-03-23T10:26:39;10.32;;;5.63;;
6133;SDS011;3098;42.678;23.364;2023-03-23T10:29:14;9.82;;;4.75;;
6133;SDS011;3098;42.678;23.364;2023-03-23T10:31:46;8.00;;;4.97;;
6133;SDS011;3098;42.678;23.364;2023-03-23T10:34:19;8.20;;;4.78;;
6133;SDS011;3098;42.678;23.364;2023-03-23T10:36:51;7.10;;;4.47;;
6133;SDS011;3098;42.678;23.364;2023-03-23T10:39:26;12.93;;;5.03;;
6133;SDS011;3098;42.678;23.364;2023-03-23T10:41:59;8.95;;;4.78;;
6133;SDS011;3098;42.678;23.364;2023-03-23T10:44:32;8.18;;;5.20;;
6133;SDS011;3098;42.678;23.364;2023-03-23T10:47:01;8.18;;;4.88;;
6133;SDS011;3098;42.678;23.364;2023-03-23T10:49:33;7.55;;;4.70;;
6133;SDS011;3098;42.678;23.364;2023-03-23T10:52:09;9.73;;;5.53;;
6133;SDS011;3098;42.678;23.364;2023-03-23T10:54:51;8.95;;;4.80;;
6133;SDS011;3098;42.678;23.364;2023-03-23T10:57:22;11.00;;;5.22;;
6133;SDS011;3098;42.678;23.364;2023-03-23T10:59:57;9.75;;;5.03;;
6133;SDS011;3098;42.678;23.364;2023-03-23T11:02:26;8.73;;;5.10;;
6133;SDS011;3098;42.678;23.364;2023-03-23T11:04:59;9.93;;;5.78;;
6133;SDS011;3098;42.678;23.364;2023-03-23T11:07:31;12.10;;;5.15;;
6133;SDS011;3098;42.678;23.364;2023-03-23T11:10:07;7.88;;;4.88;;
6133;SDS011;3098;42.678;23.364;2023-03-23T11:12:44;8.52;;;4.93;;
6133;SDS011;3098;42.678;23.364;2023-03-23T11:15:28;7.78;;;5.10;;
6133;SDS011;3098;42.678;23.364;2023-03-23T11:17:58;8.40;;;4.82;;
6133;SDS011;3098;42.678;23.364;2023-03-23T11:20:28;11.20;;;5.05;;
6133;SDS011;3098;42.678;23.364;2023-03-23T11:22:56;7.85;;;4.97;;
6133;SDS011;3098;42.678;23.364;2023-03-23T11:25:25;9.95;;;5.22;;
6133;SDS011;3098;42.678;23.364;2023-03-23T11:27:53;6.05;;;4.50;;
6133;SDS011;3098;42.678;23.364;2023-03-23T11:30:22;6.38;;;3.78;;
6133;SDS011;3098;42.678;23.364;2023-03-23T11:32:52;7.50;;;4.68;;
6133;SDS011;3098;42.678;23.364;2023-03-23T11:35:23;12.40;;;5.28;;
6133;SDS011;3098;42.678;23.364;2023-03-23T11:37:54;7.38;;;5.03;;
6133;SDS011;3098;42.678;23.364;2023-03-23T11:40:23;9.05;;;4.78;;
6133;SDS011;3098;42.678;23.364;2023-03-23T11:42:58;10.45;;;5.35;;
6133;SDS011;3098;42.678;23.364;2023-03-23T11:45:31;9.75;;;5.03;;
6133;SDS011;3098;42.678;23.364;2023-03-23T11:48:03;8.30;;;4.93;;
6133;SDS011;3098;42.678;23.364;2023-03-23T11:50:44;8.88;;;4.85;;
6133;SDS011;3098;42.678;23.364;2023-03-23T11:53:22;16.27;;;7.18;;
6133;SDS011;3098;42.678;23.364;2023-03-23T11:55:57;12.30;;;6.75;;
6133;SDS011;3098;42.678;23.364;2023-03-23T11:58:32;7.68;;;4.88;;
6133;SDS011;3098;42.678;23.364;2023-03-23T12:01:02;8.63;;;4.25;;
6133;SDS011;3098;42.678;23.364;2023-03-23T12:03:42;9.23;;;4.45;;
6133;SDS011;3098;42.678;23.364;2023-03-23T12:06:20;8.25;;;4.78;;
6133;SDS011;3098;42.678;23.364;2023-03-23T12:08:58;7.47;;;4.57;;
6133;SDS011;3098;42.678;23.364;2023-03-23T12:11:37;10.25;;;4.50;;
6133;SDS011;3098;42.678;23.364;2023-03-23T12:14:14;8.15;;;4.72;;
6133;SDS011;3098;42.678;23.364;2023-03-23T12:16:50;5.68;;;4.15;;
6133;SDS011;3098;42.678;23.364;2023-03-23T12:19:28;6.82;;;4.13;;
6133;SDS011;3098;42.678;23.364;2023-03-23T12:22:05;10.73;;;4.75;;
6133;SDS011;3098;42.678;23.364;2023-03-23T12:24:48;7.28;;;4.70;;
6133;SDS011;3098;42.678;23.364;2023-03-23T12:27:28;8.18;;;4.78;;
6133;SDS011;3098;42.678;23.364;2023-03-23T12:30:19;7.18;;;4.40;;
6133;SDS011;3098;42.678;23.364;2023-03-23T12:32:58;8.25;;;5.18;;
6133;SDS011;3098;42.678;23.364;2023-03-23T12:35:47;9.05;;;5.28;;
6133;SDS011;3098;42.678;23.364;2023-03-23T12:41:42;8.90;;;4.82;;
6133;SDS011;3098;42.678;23.364;2023-03-23T12:44:18;8.60;;;4.80;;
6133;SDS011;3098;42.678;23.364;2023-03-23T12:46:56;9.30;;;4.22;;
6133;SDS011;3098;42.678;23.364;2023-03-23T12:49:34;9.13;;;4.60;;
6133;SDS011;3098;42.678;23.364;2023-03-23T12:52:10;8.63;;;4.82;;
6133;SDS011;3098;42.678;23.364;2023-03-23T12:54:41;7.72;;;4.30;;
6133;SDS011;3098;42.678;23.364;2023-03-23T12:57:18;7.05;;;4.32;;
6133;SDS011;3098;42.678;23.364;2023-03-23T12:59:54;10.80;;;5.10;;
6133;SDS011;3098;42.678;23.364;2023-03-23T13:02:27;9.18;;;4.97;;
6133;SDS011;3098;42.678;23.364;2023-03-23T13:04:58;9.90;;;4.68;;
6133;SDS011;3098;42.678;23.364;2023-03-23T13:07:32;7.82;;;4.25;;
6133;SDS011;3098;42.678;23.364;2023-03-23T13:10:05;9.00;;;4.57;;
6133;SDS011;3098;42.678;23.364;2023-03-23T13:12:40;8.20;;;4.95;;
6133;SDS011;3098;42.678;23.364;2023-03-23T13:15:14;11.70;;;5.00;;
6133;SDS011;3098;42.678;23.364;2023-03-23T13:17:49;9.20;;;4.70;;
6133;SDS011;3098;42.678;23.364;2023-03-23T13:20:36;13.63;;;6.93;;
6133;SDS011;3098;42.678;23.364;2023-03-23T13:23:18;9.68;;;4.38;;
6133;SDS011;3098;42.678;23.364;2023-03-23T13:25:51;8.48;;;4.57;;
6133;SDS011;3098;42.678;23.364;2023-03-23T13:28:22;8.80;;;4.15;;
6133;SDS011;3098;42.678;23.364;2023-03-23T13:30:56;8.95;;;4.85;;
6133;SDS011;3098;42.678;23.364;2023-03-23T13:33:25;7.63;;;4.65;;
6133;SDS011;3098;42.678;23.364;2023-03-23T13:35:56;7.70;;;4.22;;
6133;SDS011;3098;42.678;23.364;2023-03-23T13:38:23;6.90;;;3.67;;
6133;SDS011;3098;42.678;23.364;2023-03-23T13:40:54;10.30;;;4.65;;
6133;SDS011;3098;42.678;23.364;2023-03-23T13:43:26;5.68;;;3.83;;
6133;SDS011;3098;42.678;23.364;2023-03-23T13:46:05;8.68;;;4.68;;
6133;SDS011;3098;42.678;23.364;2023-03-23T13:48:43;10.48;;;4.65;;
6133;SDS011;3098;42.678;23.364;2023-03-23T13:51:32;7.25;;;3.80;;
6133;SDS011;3098;42.678;23.364;2023-03-23T13:54:06;9.90;;;4.55;;
6133;SDS011;3098;42.678;23.364;2023-03-23T13:56:55;8.15;;;4.45;;
6133;SDS011;3098;42.678;23.364;2023-03-23T13:59:34;6.60;;;3.88;;
6133;SDS011;3098;42.678;23.364;2023-03-23T14:02:28;9.50;;;4.68;;
6133;SDS011;3098;42.678;23.364;2023-03-23T14:08:00;6.68;;;3.90;;
6133;SDS011;3098;42.678;23.364;2023-03-23T14:10:33;7.95;;;4.53;;
6133;SDS011;3098;42.678;23.364;2023-03-23T14:13:03;9.25;;;4.28;;
6133;SDS011;3098;42.678;23.364;2023-03-23T14:15:37;8.23;;;4.45;;
6133;SDS011;3098;42.678;23.364;2023-03-23T14:18:12;9.27;;;4.75;;
6133;SDS011;3098;42.678;23.364;2023-03-23T14:20:41;9.80;;;4.70;;
6133;SDS011;3098;42.678;23.364;2023-03-23T14:23:14;7.80;;;4.03;;
6133;SDS011;3098;42.678;23.364;2023-03-23T14:25:43;6.75;;;4.40;;
6133;SDS011;3098;42.678;23.364;2023-03-23T14:28:16;6.60;;;4.05;;
6133;SDS011;3098;42.678;23.364;2023-03-23T14:30:46;8.52;;;4.63;;
6133;SDS011;3098;42.678;23.364;2023-03-23T14:33:17;9.70;;;4.47;;
6133;SDS011;3098;42.678;23.364;2023-03-23T14:35:46;7.63;;;4.00;;
6133;SDS011;3098;42.678;23.364;2023-03-23T14:38:15;8.15;;;4.03;;
6133;SDS011;3098;42.678;23.364;2023-03-23T14:40:46;7.45;;;4.15;;
6133;SDS011;3098;42.678;23.364;2023-03-23T14:43:15;8.05;;;4.22;;
6133;SDS011;3098;42.678;23.364;2023-03-23T14:45:46;11.82;;;4.32;;
6133;SDS011;3098;42.678;23.364;2023-03-23T14:48:17;9.15;;;4.47;;
6133;SDS011;3098;42.678;23.364;2023-03-23T14:50:51;14.75;;;4.97;;
6133;SDS011;3098;42.678;23.364;2023-03-23T14:53:22;7.25;;;3.95;;
6133;SDS011;3098;42.678;23.364;2023-03-23T14:55:53;7.03;;;4.07;;
6133;SDS011;3098;42.678;23.364;2023-03-23T14:58:22;7.82;;;4.63;;
6133;SDS011;3098;42.678;23.364;2023-03-23T15:00:53;9.10;;;4.32;;
6133;SDS011;3098;42.678;23.364;2023-03-23T15:03:25;8.70;;;4.63;;
6133;SDS011;3098;42.678;23.364;2023-03-23T15:05:55;9.00;;;4.15;;
6133;SDS011;3098;42.678;23.364;2023-03-23T15:08:25;8.38;;;4.32;;
6133;SDS011;3098;42.678;23.364;2023-03-23T15:10:58;11.45;;;4.60;;
6133;SDS011;3098;42.678;23.364;2023-03-23T15:13:31;7.13;;;4.30;;
6133;SDS011;3098;42.678;23.364;2023-03-23T15:16:02;7.93;;;4.47;;